Live ATC SBMG!



Copyright © 2009-2014 todos os direitos reservados
Proibida a reprodução total ou parcial.
NOTICE Unauthorized linking and use of audio feeds is prohibited. See LiveATC.net Terms of Service 

quinta-feira, 23 de maio de 2013

MAIS UM DIA DE NEVOEIRO!





NA NOITE DE QUARTA O NEVOEIRO "COLOU" E O SBMG FECHOU!
CANCELANDO OS VOOS QUE VINHAM DEPOIS DAS 21HS.
AS AERONAVES ALTERNARAM PARA AEROPORTOS PRÓXIMOS E OS PASSAGEIROS CHEGARAM DE ÔNIBUS AQUI NO SBMG!
POR INCRÍVEL QUE PAREÇA AS 04HS DA MANHÃ O NEVOEIRO SUMIU!
MAS TODOS OS VOOS DA MANHA JÁ TINHAM SIDO CANCELADOS PELAS CIAS, E OS PASSAGEIROS FORAM REACOMODADOS NOS PRÓXIMOS VOOS, FALANDO NISSO NÃO FOI OBSERVADO NENHUM TIPO DE TUMULTO NO SAGUÃO.
DEPOIS DAS 07HS UMA CHUVA PASSOU PELO AERÓDROMO MAS NÃO CHEGOU A ATRAPALHAR OS VOOS QUE ESTAVAM CHEGANDO!


PS: NO MOMENTO O SBMG ESTÁ ABERTO


METAR SBMG 231900Z 11003KT 4000 BR FEW003 BKN025 BKN050 19/19 Q1015=



Nenhum comentário:

Postar um comentário